sensor_id;sensor_type;location;lat;lon;timestamp;P1;durP1;ratioP1;P2;durP2;ratioP2
37847;SDS011;23688;33.130;-117.188;2023-11-18T00:02:02;27.02;;;17.80;;
37847;SDS011;23688;33.130;-117.188;2023-11-18T00:04:28;29.10;;;17.88;;
37847;SDS011;23688;33.130;-117.188;2023-11-18T00:06:55;29.63;;;17.48;;
37847;SDS011;23688;33.130;-117.188;2023-11-18T00:09:24;27.13;;;17.70;;
37847;SDS011;23688;33.130;-117.188;2023-11-18T00:11:50;27.90;;;18.67;;
37847;SDS011;23688;33.130;-117.188;2023-11-18T00:14:16;27.50;;;17.30;;
37847;SDS011;23688;33.130;-117.188;2023-11-18T00:16:43;28.17;;;17.75;;
37847;SDS011;23688;33.130;-117.188;2023-11-18T00:19:09;27.00;;;16.95;;
37847;SDS011;23688;33.130;-117.188;2023-11-18T00:21:36;26.73;;;18.65;;
37847;SDS011;23688;33.130;-117.188;2023-11-18T00:24:02;24.08;;;16.88;;
37847;SDS011;23688;33.130;-117.188;2023-11-18T00:26:29;31.27;;;22.65;;
37847;SDS011;23688;33.130;-117.188;2023-11-18T00:28:55;32.38;;;22.65;;
37847;SDS011;23688;33.130;-117.188;2023-11-18T00:31:22;34.28;;;23.73;;
37847;SDS011;23688;33.130;-117.188;2023-11-18T00:33:48;39.65;;;24.30;;
37847;SDS011;23688;33.130;-117.188;2023-11-18T00:36:14;38.83;;;26.73;;
37847;SDS011;23688;33.130;-117.188;2023-11-18T00:38:41;40.30;;;26.73;;
37847;SDS011;23688;33.130;-117.188;2023-11-18T00:41:07;41.80;;;26.30;;
37847;SDS011;23688;33.130;-117.188;2023-11-18T00:43:33;36.15;;;26.67;;
37847;SDS011;23688;33.130;-117.188;2023-11-18T00:46:00;39.63;;;27.05;;
37847;SDS011;23688;33.130;-117.188;2023-11-18T00:48:28;38.33;;;25.55;;
37847;SDS011;23688;33.130;-117.188;2023-11-18T00:50:55;38.28;;;23.35;;
37847;SDS011;23688;33.130;-117.188;2023-11-18T00:53:22;39.28;;;23.35;;
37847;SDS011;23688;33.130;-117.188;2023-11-18T00:55:49;36.60;;;24.93;;
37847;SDS011;23688;33.130;-117.188;2023-11-18T00:58:16;36.63;;;25.70;;
37847;SDS011;23688;33.130;-117.188;2023-11-18T01:00:42;36.70;;;27.13;;
37847;SDS011;23688;33.130;-117.188;2023-11-18T01:03:08;39.65;;;26.88;;
37847;SDS011;23688;33.130;-117.188;2023-11-18T01:05:35;36.40;;;27.85;;
37847;SDS011;23688;33.130;-117.188;2023-11-18T01:08:02;42.88;;;26.67;;
37847;SDS011;23688;33.130;-117.188;2023-11-18T01:10:30;40.77;;;27.00;;
37847;SDS011;23688;33.130;-117.188;2023-11-18T01:12:56;35.72;;;27.80;;
37847;SDS011;23688;33.130;-117.188;2023-11-18T01:15:23;40.70;;;26.75;;
37847;SDS011;23688;33.130;-117.188;2023-11-18T01:17:49;37.42;;;27.92;;
37847;SDS011;23688;33.130;-117.188;2023-11-18T01:20:16;42.55;;;30.02;;
37847;SDS011;23688;33.130;-117.188;2023-11-18T01:22:47;37.08;;;28.38;;
37847;SDS011;23688;33.130;-117.188;2023-11-18T01:25:15;41.58;;;29.05;;
37847;SDS011;23688;33.130;-117.188;2023-11-18T01:27:44;38.70;;;27.58;;
37847;SDS011;23688;33.130;-117.188;2023-11-18T01:30:16;37.47;;;26.63;;
37847;SDS011;23688;33.130;-117.188;2023-11-18T01:32:42;36.85;;;24.40;;
37847;SDS011;23688;33.130;-117.188;2023-11-18T01:35:09;39.70;;;25.85;;
37847;SDS011;23688;33.130;-117.188;2023-11-18T01:37:38;35.70;;;26.77;;
37847;SDS011;23688;33.130;-117.188;2023-11-18T01:40:12;37.03;;;24.73;;
37847;SDS011;23688;33.130;-117.188;2023-11-18T01:42:44;33.03;;;24.08;;
37847;SDS011;23688;33.130;-117.188;2023-11-18T01:45:15;36.65;;;24.77;;
37847;SDS011;23688;33.130;-117.188;2023-11-18T01:47:44;38.55;;;25.90;;
37847;SDS011;23688;33.130;-117.188;2023-11-18T01:52:40;37.08;;;23.70;;
37847;SDS011;23688;33.130;-117.188;2023-11-18T01:55:08;34.00;;;23.15;;
37847;SDS011;23688;33.130;-117.188;2023-11-18T01:57:35;40.20;;;25.33;;
37847;SDS011;23688;33.130;-117.188;2023-11-18T02:00:02;36.83;;;25.83;;
37847;SDS011;23688;33.130;-117.188;2023-11-18T02:02:31;36.97;;;25.00;;
37847;SDS011;23688;33.130;-117.188;2023-11-18T02:04:58;37.67;;;24.50;;
37847;SDS011;23688;33.130;-117.188;2023-11-18T02:07:28;40.08;;;25.48;;
37847;SDS011;23688;33.130;-117.188;2023-11-18T02:09:55;33.33;;;24.42;;
37847;SDS011;23688;33.130;-117.188;2023-11-18T02:12:23;35.50;;;25.83;;
37847;SDS011;23688;33.130;-117.188;2023-11-18T02:15:00;39.38;;;26.08;;
37847;SDS011;23688;33.130;-117.188;2023-11-18T02:17:29;40.92;;;25.00;;
37847;SDS011;23688;33.130;-117.188;2023-11-18T02:19:57;37.13;;;25.47;;
37847;SDS011;23688;33.130;-117.188;2023-11-18T02:22:25;38.03;;;25.80;;
37847;SDS011;23688;33.130;-117.188;2023-11-18T02:24:52;41.20;;;25.77;;
37847;SDS011;23688;33.130;-117.188;2023-11-18T02:27:18;33.08;;;25.25;;
37847;SDS011;23688;33.130;-117.188;2023-11-18T02:29:47;38.15;;;27.05;;
37847;SDS011;23688;33.130;-117.188;2023-11-18T02:32:31;38.40;;;26.48;;
37847;SDS011;23688;33.130;-117.188;2023-11-18T02:37:55;40.40;;;26.75;;
37847;SDS011;23688;33.130;-117.188;2023-11-18T02:43:09;45.88;;;30.05;;
37847;SDS011;23688;33.130;-117.188;2023-11-18T02:45:37;46.88;;;30.50;;
37847;SDS011;23688;33.130;-117.188;2023-11-18T02:48:05;53.05;;;29.83;;
37847;SDS011;23688;33.130;-117.188;2023-11-18T02:50:31;49.55;;;31.25;;
37847;SDS011;23688;33.130;-117.188;2023-11-18T02:53:00;51.55;;;32.00;;
37847;SDS011;23688;33.130;-117.188;2023-11-18T02:55:27;49.60;;;33.30;;
37847;SDS011;23688;33.130;-117.188;2023-11-18T02:57:54;52.22;;;33.42;;
37847;SDS011;23688;33.130;-117.188;2023-11-18T03:00:21;45.75;;;29.75;;
37847;SDS011;23688;33.130;-117.188;2023-11-18T03:02:48;45.97;;;29.70;;
37847;SDS011;23688;33.130;-117.188;2023-11-18T03:05:17;46.03;;;29.88;;
37847;SDS011;23688;33.130;-117.188;2023-11-18T03:07:44;45.80;;;30.80;;
37847;SDS011;23688;33.130;-117.188;2023-11-18T03:10:23;46.97;;;29.35;;
37847;SDS011;23688;33.130;-117.188;2023-11-18T03:12:49;46.05;;;28.45;;
37847;SDS011;23688;33.130;-117.188;2023-11-18T03:15:18;43.67;;;29.20;;
37847;SDS011;23688;33.130;-117.188;2023-11-18T03:17:45;36.80;;;28.55;;
37847;SDS011;23688;33.130;-117.188;2023-11-18T03:20:14;40.63;;;26.50;;
37847;SDS011;23688;33.130;-117.188;2023-11-18T03:22:51;35.97;;;27.27;;
37847;SDS011;23688;33.130;-117.188;2023-11-18T03:25:18;46.65;;;26.17;;
37847;SDS011;23688;33.130;-117.188;2023-11-18T03:27:47;36.38;;;24.80;;
37847;SDS011;23688;33.130;-117.188;2023-11-18T03:30:28;35.22;;;24.27;;
37847;SDS011;23688;33.130;-117.188;2023-11-18T03:32:54;44.78;;;23.73;;
37847;SDS011;23688;33.130;-117.188;2023-11-18T03:35:21;42.55;;;23.33;;
37847;SDS011;23688;33.130;-117.188;2023-11-18T03:37:49;39.42;;;25.23;;
37847;SDS011;23688;33.130;-117.188;2023-11-18T03:40:17;28.95;;;22.65;;
37847;SDS011;23688;33.130;-117.188;2023-11-18T03:42:43;34.45;;;22.50;;
37847;SDS011;23688;33.130;-117.188;2023-11-18T03:45:13;27.13;;;21.90;;
37847;SDS011;23688;33.130;-117.188;2023-11-18T03:47:43;30.63;;;23.70;;
37847;SDS011;23688;33.130;-117.188;2023-11-18T03:50:10;32.20;;;21.88;;
37847;SDS011;23688;33.130;-117.188;2023-11-18T03:52:38;30.73;;;19.92;;
37847;SDS011;23688;33.130;-117.188;2023-11-18T03:55:05;27.65;;;21.50;;
37847;SDS011;23688;33.130;-117.188;2023-11-18T03:57:33;30.93;;;20.37;;
37847;SDS011;23688;33.130;-117.188;2023-11-18T03:59:59;29.45;;;20.27;;
37847;SDS011;23688;33.130;-117.188;2023-11-18T04:02:26;28.85;;;21.25;;
37847;SDS011;23688;33.130;-117.188;2023-11-18T04:04:54;30.25;;;20.02;;
37847;SDS011;23688;33.130;-117.188;2023-11-18T04:07:20;27.17;;;20.70;;
37847;SDS011;23688;33.130;-117.188;2023-11-18T04:09:47;30.70;;;21.38;;
37847;SDS011;23688;33.130;-117.188;2023-11-18T04:12:13;37.95;;;22.85;;
37847;SDS011;23688;33.130;-117.188;2023-11-18T04:14:41;25.77;;;19.33;;
37847;SDS011;23688;33.130;-117.188;2023-11-18T04:17:10;24.35;;;18.55;;
37847;SDS011;23688;33.130;-117.188;2023-11-18T04:19:37;31.25;;;20.48;;
37847;SDS011;23688;33.130;-117.188;2023-11-18T04:22:05;32.50;;;20.70;;
37847;SDS011;23688;33.130;-117.188;2023-11-18T04:24:31;31.45;;;20.83;;
37847;SDS011;23688;33.130;-117.188;2023-11-18T04:26:57;33.08;;;20.38;;
37847;SDS011;23688;33.130;-117.188;2023-11-18T04:29:24;27.27;;;19.40;;
37847;SDS011;23688;33.130;-117.188;2023-11-18T04:31:52;28.93;;;19.33;;
37847;SDS011;23688;33.130;-117.188;2023-11-18T04:34:18;29.02;;;19.80;;
37847;SDS011;23688;33.130;-117.188;2023-11-18T04:36:45;26.98;;;21.02;;
37847;SDS011;23688;33.130;-117.188;2023-11-18T04:39:11;26.77;;;18.85;;
37847;SDS011;23688;33.130;-117.188;2023-11-18T04:41:37;29.55;;;20.67;;
37847;SDS011;23688;33.130;-117.188;2023-11-18T04:44:04;23.48;;;18.88;;
37847;SDS011;23688;33.130;-117.188;2023-11-18T04:46:30;25.05;;;17.48;;
37847;SDS011;23688;33.130;-117.188;2023-11-18T04:48:57;22.52;;;17.23;;
37847;SDS011;23688;33.130;-117.188;2023-11-18T04:51:24;23.92;;;17.50;;
37847;SDS011;23688;33.130;-117.188;2023-11-18T04:53:50;25.90;;;18.60;;
37847;SDS011;23688;33.130;-117.188;2023-11-18T04:56:17;31.95;;;17.73;;
37847;SDS011;23688;33.130;-117.188;2023-11-18T04:58:43;26.85;;;17.52;;
37847;SDS011;23688;33.130;-117.188;2023-11-18T05:01:12;25.50;;;17.13;;
37847;SDS011;23688;33.130;-117.188;2023-11-18T05:03:42;23.52;;;16.33;;
37847;SDS011;23688;33.130;-117.188;2023-11-18T05:06:09;16.95;;;14.45;;
37847;SDS011;23688;33.130;-117.188;2023-11-18T05:08:36;23.55;;;13.85;;
37847;SDS011;23688;33.130;-117.188;2023-11-18T05:11:03;21.70;;;12.32;;
37847;SDS011;23688;33.130;-117.188;2023-11-18T05:13:31;17.23;;;12.95;;
37847;SDS011;23688;33.130;-117.188;2023-11-18T05:15:59;24.00;;;13.52;;
37847;SDS011;23688;33.130;-117.188;2023-11-18T05:18:25;19.20;;;13.38;;
37847;SDS011;23688;33.130;-117.188;2023-11-18T05:20:54;16.95;;;11.15;;
37847;SDS011;23688;33.130;-117.188;2023-11-18T05:23:22;12.55;;;9.13;;
37847;SDS011;23688;33.130;-117.188;2023-11-18T05:25:49;12.05;;;9.60;;
37847;SDS011;23688;33.130;-117.188;2023-11-18T05:28:15;12.68;;;9.13;;
37847;SDS011;23688;33.130;-117.188;2023-11-18T05:30:42;11.63;;;8.23;;
37847;SDS011;23688;33.130;-117.188;2023-11-18T05:33:09;13.85;;;9.65;;
37847;SDS011;23688;33.130;-117.188;2023-11-18T05:35:40;12.25;;;8.82;;
37847;SDS011;23688;33.130;-117.188;2023-11-18T05:40:36;10.20;;;7.75;;
37847;SDS011;23688;33.130;-117.188;2023-11-18T05:43:08;14.93;;;8.30;;
37847;SDS011;23688;33.130;-117.188;2023-11-18T05:45:41;11.80;;;7.28;;
37847;SDS011;23688;33.130;-117.188;2023-11-18T05:48:27;11.30;;;6.35;;
37847;SDS011;23688;33.130;-117.188;2023-11-18T05:50:53;10.73;;;7.47;;
37847;SDS011;23688;33.130;-117.188;2023-11-18T05:53:22;8.98;;;7.13;;
37847;SDS011;23688;33.130;-117.188;2023-11-18T05:55:49;9.98;;;7.30;;
37847;SDS011;23688;33.130;-117.188;2023-11-18T05:58:16;10.30;;;6.20;;
37847;SDS011;23688;33.130;-117.188;2023-11-18T06:00:42;10.68;;;7.25;;
37847;SDS011;23688;33.130;-117.188;2023-11-18T06:03:09;10.90;;;6.32;;
37847;SDS011;23688;33.130;-117.188;2023-11-18T06:05:36;11.20;;;5.75;;
37847;SDS011;23688;33.130;-117.188;2023-11-18T06:08:03;8.30;;;5.78;;
37847;SDS011;23688;33.130;-117.188;2023-11-18T06:10:30;9.15;;;6.05;;
37847;SDS011;23688;33.130;-117.188;2023-11-18T06:12:59;9.90;;;5.10;;
37847;SDS011;23688;33.130;-117.188;2023-11-18T06:15:26;6.78;;;4.82;;
37847;SDS011;23688;33.130;-117.188;2023-11-18T06:17:54;10.93;;;5.78;;
37847;SDS011;23688;33.130;-117.188;2023-11-18T06:20:21;10.45;;;5.00;;
37847;SDS011;23688;33.130;-117.188;2023-11-18T06:22:49;7.95;;;4.70;;
37847;SDS011;23688;33.130;-117.188;2023-11-18T06:25:15;10.48;;;4.70;;
37847;SDS011;23688;33.130;-117.188;2023-11-18T06:27:44;6.57;;;4.43;;
37847;SDS011;23688;33.130;-117.188;2023-11-18T06:30:11;5.53;;;4.32;;
37847;SDS011;23688;33.130;-117.188;2023-11-18T06:32:38;7.13;;;3.97;;
37847;SDS011;23688;33.130;-117.188;2023-11-18T06:35:06;5.30;;;3.70;;
37847;SDS011;23688;33.130;-117.188;2023-11-18T06:37:33;8.07;;;4.20;;
37847;SDS011;23688;33.130;-117.188;2023-11-18T06:39:59;5.93;;;3.97;;
37847;SDS011;23688;33.130;-117.188;2023-11-18T06:42:26;6.53;;;3.72;;
37847;SDS011;23688;33.130;-117.188;2023-11-18T06:44:53;9.10;;;4.95;;
37847;SDS011;23688;33.130;-117.188;2023-11-18T06:47:20;10.68;;;6.55;;
37847;SDS011;23688;33.130;-117.188;2023-11-18T06:49:46;9.18;;;6.15;;
37847;SDS011;23688;33.130;-117.188;2023-11-18T06:52:17;11.98;;;5.90;;
37847;SDS011;23688;33.130;-117.188;2023-11-18T06:54:44;6.93;;;5.00;;
37847;SDS011;23688;33.130;-117.188;2023-11-18T06:57:15;5.80;;;3.95;;
37847;SDS011;23688;33.130;-117.188;2023-11-18T06:59:41;5.57;;;4.22;;
37847;SDS011;23688;33.130;-117.188;2023-11-18T07:02:08;5.38;;;3.72;;
37847;SDS011;23688;33.130;-117.188;2023-11-18T07:04:35;5.80;;;4.47;;
37847;SDS011;23688;33.130;-117.188;2023-11-18T07:07:03;5.75;;;4.40;;
37847;SDS011;23688;33.130;-117.188;2023-11-18T07:09:30;8.80;;;5.35;;
37847;SDS011;23688;33.130;-117.188;2023-11-18T07:12:01;10.10;;;6.97;;
37847;SDS011;23688;33.130;-117.188;2023-11-18T07:14:31;11.70;;;6.47;;
37847;SDS011;23688;33.130;-117.188;2023-11-18T07:16:58;13.65;;;7.13;;
37847;SDS011;23688;33.130;-117.188;2023-11-18T07:19:24;7.53;;;5.82;;
37847;SDS011;23688;33.130;-117.188;2023-11-18T07:21:51;6.13;;;5.47;;
37847;SDS011;23688;33.130;-117.188;2023-11-18T07:24:17;8.80;;;4.10;;
37847;SDS011;23688;33.130;-117.188;2023-11-18T07:26:45;6.97;;;5.03;;
37847;SDS011;23688;33.130;-117.188;2023-11-18T07:29:11;6.95;;;4.50;;
37847;SDS011;23688;33.130;-117.188;2023-11-18T07:31:38;7.45;;;3.92;;
37847;SDS011;23688;33.130;-117.188;2023-11-18T07:34:05;7.60;;;3.95;;
37847;SDS011;23688;33.130;-117.188;2023-11-18T07:36:32;5.43;;;3.40;;
37847;SDS011;23688;33.130;-117.188;2023-11-18T07:38:59;4.65;;;3.33;;
37847;SDS011;23688;33.130;-117.188;2023-11-18T07:41:35;8.35;;;3.20;;
37847;SDS011;23688;33.130;-117.188;2023-11-18T07:44:01;7.88;;;3.55;;
37847;SDS011;23688;33.130;-117.188;2023-11-18T07:46:27;8.30;;;3.55;;
37847;SDS011;23688;33.130;-117.188;2023-11-18T07:48:55;5.50;;;3.80;;
37847;SDS011;23688;33.130;-117.188;2023-11-18T07:51:23;8.25;;;3.75;;
37847;SDS011;23688;33.130;-117.188;2023-11-18T07:53:50;7.75;;;3.30;;
37847;SDS011;23688;33.130;-117.188;2023-11-18T07:56:17;6.68;;;3.20;;
37847;SDS011;23688;33.130;-117.188;2023-11-18T07:58:43;6.53;;;3.53;;
37847;SDS011;23688;33.130;-117.188;2023-11-18T08:01:13;6.20;;;3.05;;
37847;SDS011;23688;33.130;-117.188;2023-11-18T08:03:41;8.77;;;3.70;;
37847;SDS011;23688;33.130;-117.188;2023-11-18T08:06:10;8.88;;;4.40;;
37847;SDS011;23688;33.130;-117.188;2023-11-18T08:08:37;10.82;;;4.70;;
37847;SDS011;23688;33.130;-117.188;2023-11-18T08:11:07;6.18;;;3.88;;
37847;SDS011;23688;33.130;-117.188;2023-11-18T08:13:36;8.45;;;3.72;;
37847;SDS011;23688;33.130;-117.188;2023-11-18T08:16:03;9.25;;;3.47;;
37847;SDS011;23688;33.130;-117.188;2023-11-18T08:18:29;8.95;;;3.80;;
37847;SDS011;23688;33.130;-117.188;2023-11-18T08:20:58;5.47;;;3.42;;
37847;SDS011;23688;33.130;-117.188;2023-11-18T08:23:25;9.23;;;3.60;;
37847;SDS011;23688;33.130;-117.188;2023-11-18T08:25:53;4.80;;;3.50;;
37847;SDS011;23688;33.130;-117.188;2023-11-18T08:28:20;7.88;;;4.53;;
37847;SDS011;23688;33.130;-117.188;2023-11-18T08:30:47;9.00;;;4.65;;
37847;SDS011;23688;33.130;-117.188;2023-11-18T08:33:16;7.50;;;5.63;;
37847;SDS011;23688;33.130;-117.188;2023-11-18T08:38:11;5.13;;;4.63;;
37847;SDS011;23688;33.130;-117.188;2023-11-18T08:40:38;9.43;;;5.43;;
37847;SDS011;23688;33.130;-117.188;2023-11-18T08:43:04;6.95;;;4.63;;
37847;SDS011;23688;33.130;-117.188;2023-11-18T08:45:33;10.30;;;5.47;;
37847;SDS011;23688;33.130;-117.188;2023-11-18T08:48:01;9.68;;;6.30;;
37847;SDS011;23688;33.130;-117.188;2023-11-18T08:50:36;9.73;;;5.03;;
37847;SDS011;23688;33.130;-117.188;2023-11-18T08:53:05;7.32;;;4.38;;
37847;SDS011;23688;33.130;-117.188;2023-11-18T08:55:34;6.13;;;4.28;;
37847;SDS011;23688;33.130;-117.188;2023-11-18T08:58:16;5.90;;;4.55;;
37847;SDS011;23688;33.130;-117.188;2023-11-18T09:00:48;7.72;;;5.15;;
37847;SDS011;23688;33.130;-117.188;2023-11-18T09:03:26;8.25;;;6.28;;
37847;SDS011;23688;33.130;-117.188;2023-11-18T09:05:56;9.40;;;5.60;;
37847;SDS011;23688;33.130;-117.188;2023-11-18T09:08:28;7.47;;;5.82;;
37847;SDS011;23688;33.130;-117.188;2023-11-18T09:11:01;6.38;;;4.65;;
37847;SDS011;23688;33.130;-117.188;2023-11-18T09:13:30;6.85;;;4.90;;
37847;SDS011;23688;33.130;-117.188;2023-11-18T09:15:57;12.48;;;4.93;;
37847;SDS011;23688;33.130;-117.188;2023-11-18T09:18:34;10.02;;;5.50;;
37847;SDS011;23688;33.130;-117.188;2023-11-18T09:21:04;6.25;;;5.15;;
37847;SDS011;23688;33.130;-117.188;2023-11-18T09:23:33;5.20;;;4.57;;
37847;SDS011;23688;33.130;-117.188;2023-11-18T09:26:02;7.65;;;4.75;;
37847;SDS011;23688;33.130;-117.188;2023-11-18T09:28:36;11.23;;;5.18;;
37847;SDS011;23688;33.130;-117.188;2023-11-18T09:31:06;8.13;;;4.45;;
37847;SDS011;23688;33.130;-117.188;2023-11-18T09:33:37;6.55;;;4.43;;
37847;SDS011;23688;33.130;-117.188;2023-11-18T09:36:06;11.57;;;4.97;;
37847;SDS011;23688;33.130;-117.188;2023-11-18T09:41:06;6.25;;;4.78;;
37847;SDS011;23688;33.130;-117.188;2023-11-18T09:43:40;8.80;;;5.20;;
37847;SDS011;23688;33.130;-117.188;2023-11-18T09:46:25;7.85;;;5.40;;
37847;SDS011;23688;33.130;-117.188;2023-11-18T09:51:50;12.55;;;6.90;;
37847;SDS011;23688;33.130;-117.188;2023-11-18T10:02:18;7.32;;;4.72;;
37847;SDS011;23688;33.130;-117.188;2023-11-18T10:07:16;13.23;;;6.18;;
37847;SDS011;23688;33.130;-117.188;2023-11-18T10:09:44;8.18;;;4.75;;
37847;SDS011;23688;33.130;-117.188;2023-11-18T10:12:14;11.35;;;5.63;;
37847;SDS011;23688;33.130;-117.188;2023-11-18T10:14:42;7.40;;;5.25;;
37847;SDS011;23688;33.130;-117.188;2023-11-18T10:17:11;8.93;;;5.80;;
37847;SDS011;23688;33.130;-117.188;2023-11-18T10:19:58;9.43;;;6.55;;
37847;SDS011;23688;33.130;-117.188;2023-11-18T10:22:25;8.70;;;6.68;;
37847;SDS011;23688;33.130;-117.188;2023-11-18T10:24:56;8.65;;;6.88;;
37847;SDS011;23688;33.130;-117.188;2023-11-18T10:27:23;8.70;;;6.10;;
37847;SDS011;23688;33.130;-117.188;2023-11-18T10:29:54;9.53;;;6.27;;
37847;SDS011;23688;33.130;-117.188;2023-11-18T10:32:27;10.02;;;6.20;;
37847;SDS011;23688;33.130;-117.188;2023-11-18T10:34:55;8.30;;;6.07;;
37847;SDS011;23688;33.130;-117.188;2023-11-18T10:37:27;7.90;;;5.82;;
37847;SDS011;23688;33.130;-117.188;2023-11-18T10:39:56;6.45;;;4.93;;
37847;SDS011;23688;33.130;-117.188;2023-11-18T10:42:31;8.52;;;5.95;;
37847;SDS011;23688;33.130;-117.188;2023-11-18T10:44:58;8.63;;;5.38;;
37847;SDS011;23688;33.130;-117.188;2023-11-18T10:47:31;7.05;;;5.68;;
37847;SDS011;23688;33.130;-117.188;2023-11-18T10:49:58;11.50;;;6.90;;
37847;SDS011;23688;33.130;-117.188;2023-11-18T10:52:26;12.55;;;7.32;;
37847;SDS011;23688;33.130;-117.188;2023-11-18T10:55:00;13.20;;;8.80;;
37847;SDS011;23688;33.130;-117.188;2023-11-18T10:57:36;12.95;;;7.72;;
37847;SDS011;23688;33.130;-117.188;2023-11-18T11:00:07;10.85;;;6.20;;
37847;SDS011;23688;33.130;-117.188;2023-11-18T11:02:40;10.93;;;6.50;;
37847;SDS011;23688;33.130;-117.188;2023-11-18T11:05:10;10.25;;;6.15;;
37847;SDS011;23688;33.130;-117.188;2023-11-18T11:07:44;8.98;;;6.97;;
37847;SDS011;23688;33.130;-117.188;2023-11-18T11:10:11;11.60;;;6.80;;
37847;SDS011;23688;33.130;-117.188;2023-11-18T11:12:45;15.30;;;7.38;;
37847;SDS011;23688;33.130;-117.188;2023-11-18T11:18:05;11.73;;;9.13;;
37847;SDS011;23688;33.130;-117.188;2023-11-18T11:20:37;14.13;;;9.70;;
37847;SDS011;23688;33.130;-117.188;2023-11-18T11:28:34;10.67;;;6.67;;
37847;SDS011;23688;33.130;-117.188;2023-11-18T11:36:37;10.48;;;6.15;;
37847;SDS011;23688;33.130;-117.188;2023-11-18T11:39:08;11.38;;;6.05;;
37847;SDS011;23688;33.130;-117.188;2023-11-18T11:41:46;6.53;;;5.75;;
37847;SDS011;23688;33.130;-117.188;2023-11-18T11:44:17;13.02;;;6.45;;
37847;SDS011;23688;33.130;-117.188;2023-11-18T11:46:46;8.80;;;5.53;;
37847;SDS011;23688;33.130;-117.188;2023-11-18T11:49:21;9.02;;;5.68;;
37847;SDS011;23688;33.130;-117.188;2023-11-18T11:52:15;13.85;;;6.43;;
37847;SDS011;23688;33.130;-117.188;2023-11-18T11:55:49;13.88;;;5.82;;
37847;SDS011;23688;33.130;-117.188;2023-11-18T11:57:54;9.85;;;5.65;;
37847;SDS011;23688;33.130;-117.188;2023-11-18T12:00:24;13.32;;;6.93;;
37847;SDS011;23688;33.130;-117.188;2023-11-18T12:02:52;11.13;;;6.60;;
37847;SDS011;23688;33.130;-117.188;2023-11-18T12:05:25;10.23;;;7.40;;
37847;SDS011;23688;33.130;-117.188;2023-11-18T12:07:52;10.75;;;6.80;;
37847;SDS011;23688;33.130;-117.188;2023-11-18T12:10:25;9.10;;;6.07;;
37847;SDS011;23688;33.130;-117.188;2023-11-18T12:13:09;9.73;;;6.90;;
37847;SDS011;23688;33.130;-117.188;2023-11-18T12:15:48;15.80;;;9.30;;
37847;SDS011;23688;33.130;-117.188;2023-11-18T12:18:44;21.92;;;11.45;;
37847;SDS011;23688;33.130;-117.188;2023-11-18T12:21:55;16.25;;;11.57;;
37847;SDS011;23688;33.130;-117.188;2023-11-18T12:24:21;13.63;;;10.10;;
37847;SDS011;23688;33.130;-117.188;2023-11-18T12:26:48;19.42;;;11.75;;
37847;SDS011;23688;33.130;-117.188;2023-11-18T12:29:33;14.68;;;10.88;;
37847;SDS011;23688;33.130;-117.188;2023-11-18T12:32:00;17.25;;;10.10;;
37847;SDS011;23688;33.130;-117.188;2023-11-18T12:40:54;11.35;;;7.78;;
37847;SDS011;23688;33.130;-117.188;2023-11-18T12:43:03;9.45;;;6.80;;
37847;SDS011;23688;33.130;-117.188;2023-11-18T12:45:43;11.25;;;6.57;;
37847;SDS011;23688;33.130;-117.188;2023-11-18T12:48:20;9.95;;;6.38;;
37847;SDS011;23688;33.130;-117.188;2023-11-18T12:50:55;7.90;;;6.32;;
37847;SDS011;23688;33.130;-117.188;2023-11-18T12:53:22;10.38;;;6.78;;
37847;SDS011;23688;33.130;-117.188;2023-11-18T12:55:50;13.45;;;7.50;;
37847;SDS011;23688;33.130;-117.188;2023-11-18T12:58:18;16.27;;;7.65;;
37847;SDS011;23688;33.130;-117.188;2023-11-18T13:00:44;9.18;;;6.90;;
37847;SDS011;23688;33.130;-117.188;2023-11-18T13:03:15;9.77;;;6.60;;
37847;SDS011;23688;33.130;-117.188;2023-11-18T13:05:43;11.88;;;6.88;;
37847;SDS011;23688;33.130;-117.188;2023-11-18T13:08:10;10.75;;;7.07;;
37847;SDS011;23688;33.130;-117.188;2023-11-18T13:10:40;11.27;;;5.97;;
37847;SDS011;23688;33.130;-117.188;2023-11-18T13:13:07;6.80;;;6.18;;
37847;SDS011;23688;33.130;-117.188;2023-11-18T13:15:34;11.90;;;5.63;;
37847;SDS011;23688;33.130;-117.188;2023-11-18T13:18:01;7.90;;;5.80;;
37847;SDS011;23688;33.130;-117.188;2023-11-18T13:20:32;6.90;;;5.40;;
37847;SDS011;23688;33.130;-117.188;2023-11-18T13:23:03;7.28;;;5.75;;
37847;SDS011;23688;33.130;-117.188;2023-11-18T13:25:36;8.98;;;5.68;;
37847;SDS011;23688;33.130;-117.188;2023-11-18T13:28:05;6.97;;;5.30;;
37847;SDS011;23688;33.130;-117.188;2023-11-18T13:30:35;9.43;;;6.05;;
37847;SDS011;23688;33.130;-117.188;2023-11-18T13:35:30;6.07;;;4.72;;
37847;SDS011;23688;33.130;-117.188;2023-11-18T13:37:56;5.60;;;4.78;;
37847;SDS011;23688;33.130;-117.188;2023-11-18T13:40:23;8.32;;;4.85;;
37847;SDS011;23688;33.130;-117.188;2023-11-18T13:43:02;6.03;;;4.40;;
37847;SDS011;23688;33.130;-117.188;2023-11-18T13:45:33;8.20;;;3.78;;
37847;SDS011;23688;33.130;-117.188;2023-11-18T13:48:00;9.27;;;4.65;;
37847;SDS011;23688;33.130;-117.188;2023-11-18T13:50:27;5.45;;;3.83;;
37847;SDS011;23688;33.130;-117.188;2023-11-18T13:52:54;5.28;;;3.58;;
37847;SDS011;23688;33.130;-117.188;2023-11-18T13:55:21;6.85;;;4.18;;
37847;SDS011;23688;33.130;-117.188;2023-11-18T13:57:54;5.93;;;3.85;;
37847;SDS011;23688;33.130;-117.188;2023-11-18T14:00:23;10.60;;;4.15;;
37847;SDS011;23688;33.130;-117.188;2023-11-18T14:02:55;4.82;;;4.00;;
37847;SDS011;23688;33.130;-117.188;2023-11-18T14:05:22;4.35;;;3.63;;
37847;SDS011;23688;33.130;-117.188;2023-11-18T14:07:57;5.38;;;3.83;;
37847;SDS011;23688;33.130;-117.188;2023-11-18T14:10:34;4.57;;;3.95;;
37847;SDS011;23688;33.130;-117.188;2023-11-18T14:13:04;6.88;;;4.10;;
37847;SDS011;23688;33.130;-117.188;2023-11-18T14:15:40;4.95;;;4.15;;
37847;SDS011;23688;33.130;-117.188;2023-11-18T14:18:07;7.00;;;3.90;;
37847;SDS011;23688;33.130;-117.188;2023-11-18T14:20:34;8.70;;;4.10;;
37847;SDS011;23688;33.130;-117.188;2023-11-18T14:23:01;9.57;;;4.72;;
37847;SDS011;23688;33.130;-117.188;2023-11-18T14:25:34;7.45;;;3.95;;
37847;SDS011;23688;33.130;-117.188;2023-11-18T14:28:09;5.72;;;3.50;;
37847;SDS011;23688;33.130;-117.188;2023-11-18T14:30:35;4.03;;;3.25;;
37847;SDS011;23688;33.130;-117.188;2023-11-18T14:33:02;5.50;;;4.05;;
37847;SDS011;23688;33.130;-117.188;2023-11-18T14:37:56;5.47;;;3.50;;
37847;SDS011;23688;33.130;-117.188;2023-11-18T14:40:23;8.02;;;3.83;;
37847;SDS011;23688;33.130;-117.188;2023-11-18T14:42:49;5.10;;;4.05;;
37847;SDS011;23688;33.130;-117.188;2023-11-18T14:45:16;5.03;;;4.07;;
37847;SDS011;23688;33.130;-117.188;2023-11-18T14:47:44;7.90;;;4.75;;
37847;SDS011;23688;33.130;-117.188;2023-11-18T14:50:11;5.40;;;4.82;;
37847;SDS011;23688;33.130;-117.188;2023-11-18T14:52:46;7.40;;;5.53;;
37847;SDS011;23688;33.130;-117.188;2023-11-18T14:55:33;7.32;;;5.03;;
37847;SDS011;23688;33.130;-117.188;2023-11-18T14:58:00;8.27;;;5.50;;
37847;SDS011;23688;33.130;-117.188;2023-11-18T15:00:26;11.98;;;7.15;;
37847;SDS011;23688;33.130;-117.188;2023-11-18T15:02:57;18.70;;;10.20;;